createdAt,value
2017-12-06T00:01:59.874Z,12.23
2017-12-06T00:04:27.203Z,10.80
2017-12-06T00:06:54.543Z,11.07
2017-12-06T00:09:21.856Z,9.40
2017-12-06T00:11:49.188Z,11.10
2017-12-06T00:14:22.269Z,9.60
2017-12-06T00:16:49.610Z,10.90
2017-12-06T00:19:16.988Z,9.80
2017-12-06T00:21:44.307Z,9.50
2017-12-06T00:24:11.620Z,8.70
2017-12-06T00:26:39.123Z,8.90
2017-12-06T00:29:06.438Z,9.00
2017-12-06T00:31:33.741Z,8.20
2017-12-06T00:34:01.087Z,7.53
2017-12-06T00:36:28.409Z,8.73
2017-12-06T00:38:55.741Z,8.40
2017-12-06T00:41:23.054Z,9.23
2017-12-06T00:43:50.405Z,9.73
2017-12-06T00:46:17.794Z,9.00
2017-12-06T00:48:45.131Z,8.90
2017-12-06T00:51:12.437Z,8.93
2017-12-06T00:53:39.816Z,9.87
2017-12-06T00:56:07.149Z,9.50
2017-12-06T00:58:34.492Z,9.27
2017-12-06T01:01:01.800Z,9.57
2017-12-06T01:03:29.115Z,9.63
2017-12-06T01:05:56.423Z,8.37
2017-12-06T01:08:23.757Z,8.47
2017-12-06T01:10:51.093Z,8.50
2017-12-06T01:13:18.388Z,8.10
2017-12-06T01:15:45.700Z,9.20
2017-12-06T01:18:13.040Z,10.60
2017-12-06T01:20:40.407Z,9.33
2017-12-06T01:23:07.740Z,10.47
2017-12-06T01:25:35.060Z,9.50
2017-12-06T01:28:02.374Z,11.50
2017-12-06T01:30:29.731Z,11.33
2017-12-06T01:32:57.077Z,9.03
2017-12-06T01:35:24.412Z,10.40
2017-12-06T01:37:51.743Z,10.43
2017-12-06T01:40:19.052Z,10.10
2017-12-06T01:42:46.404Z,10.33
2017-12-06T01:45:13.738Z,9.10
2017-12-06T01:47:41.056Z,8.00
2017-12-06T01:50:08.342Z,9.90
2017-12-06T01:52:35.669Z,10.80
2017-12-06T01:55:02.968Z,9.50
2017-12-06T01:57:30.328Z,12.37
2017-12-06T01:59:57.667Z,11.43
2017-12-06T02:02:24.996Z,12.90
2017-12-06T02:04:52.304Z,11.83
2017-12-06T02:07:19.654Z,13.20
2017-12-06T02:09:46.979Z,11.70
2017-12-06T02:12:14.323Z,12.03
2017-12-06T02:14:41.636Z,11.50
2017-12-06T02:17:08.961Z,10.57
2017-12-06T02:19:36.296Z,10.30
2017-12-06T02:22:03.621Z,12.20
2017-12-06T02:24:30.967Z,11.73
2017-12-06T02:26:58.292Z,11.83
2017-12-06T02:29:25.620Z,10.80
2017-12-06T02:31:52.957Z,9.80
2017-12-06T02:34:20.324Z,10.40
2017-12-06T02:36:47.652Z,11.70
2017-12-06T02:39:15.043Z,11.50
2017-12-06T02:41:48.320Z,11.77
2017-12-06T02:44:21.425Z,11.20
2017-12-06T02:46:48.764Z,11.57
2017-12-06T02:49:16.146Z,10.90
2017-12-06T02:51:43.467Z,11.33
2017-12-06T02:54:10.805Z,10.20
2017-12-06T02:56:38.116Z,9.90
2017-12-06T02:59:05.481Z,9.13
2017-12-06T03:01:33.676Z,10.70
2017-12-06T03:04:00.992Z,11.50
2017-12-06T03:06:28.300Z,10.57
2017-12-06T03:08:55.621Z,10.07
2017-12-06T03:11:22.951Z,10.67
2017-12-06T03:13:50.279Z,10.57
2017-12-06T03:16:17.616Z,10.63
2017-12-06T03:18:44.940Z,11.10
2017-12-06T03:21:12.285Z,12.23
2017-12-06T03:23:39.589Z,11.23
2017-12-06T03:26:06.953Z,10.53
2017-12-06T03:28:34.244Z,11.50
2017-12-06T03:31:01.574Z,11.20
2017-12-06T03:33:28.900Z,10.27
2017-12-06T03:35:56.232Z,11.33
2017-12-06T03:38:23.553Z,9.13
2017-12-06T03:40:50.908Z,10.80
2017-12-06T03:43:18.227Z,10.13
2017-12-06T03:45:45.624Z,9.83
2017-12-06T03:48:12.947Z,10.20
2017-12-06T03:50:40.253Z,10.27
2017-12-06T03:53:07.568Z,10.90
2017-12-06T03:55:34.884Z,9.67
2017-12-06T03:58:02.221Z,10.00
2017-12-06T04:00:29.585Z,10.57
2017-12-06T04:02:56.931Z,10.60
2017-12-06T04:05:24.323Z,10.80
2017-12-06T04:07:51.616Z,12.10
2017-12-06T04:10:19.218Z,10.50
2017-12-06T04:12:46.665Z,11.10
2017-12-06T04:15:13.966Z,11.37
2017-12-06T04:17:41.355Z,11.53
2017-12-06T04:20:08.664Z,10.30
2017-12-06T04:22:36.071Z,10.77
2017-12-06T04:25:03.392Z,10.90
2017-12-06T04:27:31.009Z,10.83
2017-12-06T04:29:58.329Z,9.43
2017-12-06T04:32:25.633Z,11.43
2017-12-06T04:34:52.986Z,12.03
2017-12-06T04:37:20.447Z,13.03
2017-12-06T04:39:47.808Z,12.50
2017-12-06T04:42:15.441Z,12.10
2017-12-06T04:44:42.762Z,11.13
2017-12-06T04:47:10.063Z,13.37
2017-12-06T04:49:37.379Z,11.87
2017-12-06T04:52:04.791Z,8.33
2017-12-06T04:54:32.133Z,12.40
2017-12-06T04:56:59.469Z,11.60
2017-12-06T04:59:26.791Z,10.33
2017-12-06T05:01:54.108Z,11.57
2017-12-06T05:04:21.435Z,11.47
2017-12-06T05:06:48.748Z,10.20
2017-12-06T05:09:16.073Z,12.03
2017-12-06T05:11:43.446Z,11.80
2017-12-06T05:14:10.779Z,10.23
2017-12-06T05:16:38.254Z,12.50
2017-12-06T05:19:05.600Z,11.70
2017-12-06T05:21:32.940Z,12.10
2017-12-06T05:24:00.272Z,12.90
2017-12-06T05:26:27.589Z,9.53
2017-12-06T05:28:54.882Z,12.87
2017-12-06T05:31:22.266Z,12.80
2017-12-06T05:33:49.601Z,12.20
2017-12-06T05:36:16.915Z,11.30
2017-12-06T05:38:44.236Z,12.90
2017-12-06T05:41:11.570Z,11.87
2017-12-06T05:43:39.236Z,11.83
2017-12-06T05:46:06.605Z,11.97
2017-12-06T05:48:34.031Z,12.87
2017-12-06T05:51:01.372Z,13.20
2017-12-06T05:53:28.712Z,12.73
2017-12-06T05:55:56.071Z,12.50
2017-12-06T05:58:23.431Z,12.77
2017-12-06T06:00:50.791Z,11.43
2017-12-06T06:03:21.369Z,12.10
2017-12-06T06:05:48.672Z,12.30
2017-12-06T06:08:15.999Z,12.90
2017-12-06T06:10:43.320Z,9.93
2017-12-06T06:13:10.651Z,11.00
2017-12-06T06:15:37.981Z,13.13
2017-12-06T06:18:05.388Z,11.43
2017-12-06T06:20:32.697Z,12.93
2017-12-06T06:23:00.020Z,11.00
2017-12-06T06:25:27.380Z,12.43
2017-12-06T06:27:54.681Z,11.97
2017-12-06T06:30:22.025Z,11.60
2017-12-06T06:32:49.383Z,11.67
2017-12-06T06:35:16.701Z,10.53
2017-12-06T06:37:44.021Z,11.40
2017-12-06T06:40:11.336Z,11.47
2017-12-06T06:42:38.724Z,11.30
2017-12-06T06:45:06.086Z,12.73
2017-12-06T06:47:33.388Z,11.07
2017-12-06T06:50:00.759Z,10.27
2017-12-06T06:52:28.069Z,12.27
2017-12-06T06:54:55.389Z,12.60
2017-12-06T06:57:22.717Z,11.23
2017-12-06T06:59:50.071Z,12.47
2017-12-06T07:02:17.417Z,12.00
2017-12-06T07:04:44.721Z,11.83
2017-12-06T07:07:12.081Z,11.83
2017-12-06T07:09:39.416Z,12.40
2017-12-06T07:12:07.066Z,10.93
2017-12-06T07:14:34.455Z,10.87
2017-12-06T07:17:01.779Z,12.47
2017-12-06T07:19:29.404Z,12.53
2017-12-06T07:21:56.749Z,10.27
2017-12-06T07:24:24.059Z,13.47
2017-12-06T07:26:51.383Z,12.00
2017-12-06T07:29:18.872Z,12.00
2017-12-06T07:31:46.350Z,12.67
2017-12-06T07:34:13.656Z,11.90
2017-12-06T07:36:41.019Z,13.80
2017-12-06T07:39:08.409Z,12.67
2017-12-06T07:41:35.756Z,14.10
2017-12-06T07:44:03.051Z,14.53
2017-12-06T07:46:30.408Z,15.20
2017-12-06T07:48:57.723Z,13.97
2017-12-06T07:51:25.408Z,15.70
2017-12-06T07:53:52.739Z,15.53
2017-12-06T07:56:20.055Z,15.27
2017-12-06T07:58:47.699Z,14.83
2017-12-06T08:01:15.048Z,15.60
2017-12-06T08:03:42.366Z,17.00
2017-12-06T08:06:09.661Z,15.37
2017-12-06T08:08:39.030Z,16.27
2017-12-06T08:11:09.589Z,15.30
2017-12-06T08:13:36.913Z,17.53
2017-12-06T08:16:04.401Z,14.70
2017-12-06T08:18:31.730Z,15.60
2017-12-06T08:21:04.949Z,14.47
2017-12-06T08:23:32.461Z,16.30
2017-12-06T08:25:59.762Z,16.13
2017-12-06T08:28:27.084Z,17.07
2017-12-06T08:30:54.389Z,16.40
2017-12-06T08:33:21.774Z,16.40
2017-12-06T08:35:49.064Z,15.43
2017-12-06T08:38:16.384Z,16.30
2017-12-06T08:40:43.723Z,15.93
2017-12-06T08:43:11.064Z,16.33
2017-12-06T08:45:38.816Z,13.73
2017-12-06T08:48:06.463Z,13.53
2017-12-06T08:50:33.800Z,16.50
2017-12-06T08:53:01.114Z,16.00
2017-12-06T08:55:28.428Z,15.50
2017-12-06T08:57:55.750Z,15.57
2017-12-06T09:00:23.087Z,15.47
2017-12-06T09:02:50.679Z,14.10
2017-12-06T09:05:18.003Z,15.10
2017-12-06T09:07:45.312Z,15.20
2017-12-06T09:10:12.644Z,15.37
2017-12-06T09:12:39.953Z,14.03
2017-12-06T09:15:07.281Z,15.33
2017-12-06T09:17:34.612Z,14.37
2017-12-06T09:20:01.939Z,13.60
2017-12-06T09:22:29.304Z,15.63
2017-12-06T09:24:56.641Z,15.30
2017-12-06T09:27:23.947Z,15.60
2017-12-06T09:29:53.463Z,14.83
2017-12-06T09:32:20.809Z,14.97
2017-12-06T09:34:48.455Z,13.90
2017-12-06T09:37:15.790Z,15.17
2017-12-06T09:39:43.166Z,15.20
2017-12-06T09:42:10.505Z,14.27
2017-12-06T09:44:37.807Z,14.00
2017-12-06T09:47:05.149Z,13.47
2017-12-06T09:49:32.764Z,16.60
2017-12-06T09:52:02.041Z,14.57
2017-12-06T09:54:35.332Z,14.57
2017-12-06T09:57:03.012Z,14.93
2017-12-06T09:59:30.445Z,13.53
2017-12-06T10:01:57.812Z,12.53
2017-12-06T10:04:25.207Z,14.00
2017-12-06T10:06:52.559Z,13.90
2017-12-06T10:09:19.935Z,14.53
2017-12-06T10:11:47.323Z,15.00
2017-12-06T10:14:14.635Z,13.53
2017-12-06T10:16:41.967Z,13.73
2017-12-06T10:19:09.318Z,14.10
2017-12-06T10:21:36.599Z,14.20
2017-12-06T10:24:03.957Z,12.97
2017-12-06T10:26:35.345Z,14.80
2017-12-06T10:29:08.707Z,13.17
2017-12-06T10:31:36.050Z,13.97
2017-12-06T10:34:05.299Z,12.27
2017-12-06T10:36:45.423Z,13.20
2017-12-06T10:39:12.760Z,13.00
2017-12-06T10:41:40.093Z,11.13
2017-12-06T10:44:08.333Z,12.97
2017-12-06T10:46:35.647Z,13.47
2017-12-06T10:49:06.999Z,13.40
2017-12-06T10:51:34.515Z,13.90
2017-12-06T10:54:01.903Z,11.97
2017-12-06T10:56:29.224Z,13.07
2017-12-06T10:58:56.523Z,12.93
2017-12-06T11:01:23.868Z,12.20
2017-12-06T11:03:51.176Z,12.10
2017-12-06T11:06:18.494Z,12.00
2017-12-06T11:08:45.826Z,12.60
2017-12-06T11:11:17.206Z,13.57
2017-12-06T11:13:47.959Z,11.87
2017-12-06T11:16:15.348Z,14.13
2017-12-06T11:18:42.654Z,12.60
2017-12-06T11:21:10.028Z,12.60
2017-12-06T11:23:40.832Z,13.00
2017-12-06T11:26:08.193Z,11.87
2017-12-06T11:28:35.523Z,12.43
2017-12-06T11:31:02.870Z,12.17
2017-12-06T11:33:33.428Z,13.63
2017-12-06T11:36:00.744Z,13.77
2017-12-06T11:38:28.056Z,12.70
2017-12-06T11:40:55.391Z,11.87
2017-12-06T11:43:22.764Z,12.80
2017-12-06T11:45:50.092Z,13.93
2017-12-06T11:48:17.434Z,13.40
2017-12-06T11:50:45.043Z,10.27
2017-12-06T11:53:12.388Z,11.37
2017-12-06T11:55:39.693Z,12.80
2017-12-06T11:58:07.054Z,11.07
2017-12-06T12:00:34.407Z,13.40
2017-12-06T12:03:01.747Z,13.10
2017-12-06T12:05:29.107Z,12.53
2017-12-06T12:07:56.481Z,11.80
2017-12-06T12:10:24.103Z,12.80
2017-12-06T12:12:51.781Z,14.10
2017-12-06T12:15:19.439Z,12.87
2017-12-06T12:17:46.759Z,13.07
2017-12-06T12:20:14.139Z,12.40
2017-12-06T12:22:41.444Z,13.23
2017-12-06T12:25:08.779Z,13.07
2017-12-06T12:27:36.433Z,12.90
2017-12-06T12:30:03.848Z,12.43
2017-12-06T12:32:31.223Z,12.80
2017-12-06T12:34:58.607Z,12.90
2017-12-06T12:37:26.370Z,12.57
2017-12-06T12:39:54.034Z,14.80
2017-12-06T12:42:21.646Z,13.53
2017-12-06T12:44:49.332Z,15.10
2017-12-06T12:47:16.631Z,13.93
2017-12-06T12:49:44.063Z,14.13
2017-12-06T12:52:11.380Z,12.30
2017-12-06T12:54:38.813Z,14.93
2017-12-06T12:57:06.136Z,14.40
2017-12-06T12:59:33.441Z,12.60
2017-12-06T13:02:00.815Z,12.47
2017-12-06T13:04:28.161Z,13.67
2017-12-06T13:06:55.566Z,12.27
2017-12-06T13:09:22.881Z,13.87
2017-12-06T13:11:50.536Z,13.90
2017-12-06T13:14:17.890Z,14.00
2017-12-06T13:16:45.261Z,13.60
2017-12-06T13:19:12.887Z,14.30
2017-12-06T13:21:40.269Z,11.03
2017-12-06T13:24:07.957Z,13.00
2017-12-06T13:26:35.588Z,12.43
2017-12-06T13:29:02.923Z,15.57
2017-12-06T13:31:30.256Z,14.77
2017-12-06T13:33:57.636Z,14.00
2017-12-06T13:36:24.945Z,11.90
2017-12-06T13:38:52.772Z,11.57
2017-12-06T13:41:20.528Z,13.53
2017-12-06T13:43:47.866Z,14.37
2017-12-06T13:46:15.236Z,12.70
2017-12-06T13:48:42.560Z,12.37
2017-12-06T13:51:09.961Z,13.33
2017-12-06T13:53:37.350Z,13.47
2017-12-06T13:56:04.665Z,10.93
2017-12-06T13:58:32.346Z,11.90
2017-12-06T14:00:59.979Z,12.37
2017-12-06T14:03:27.351Z,13.53
2017-12-06T14:05:55.080Z,13.13
2017-12-06T14:08:22.371Z,10.73
2017-12-06T14:10:50.008Z,11.80
2017-12-06T14:13:17.307Z,10.27
2017-12-06T14:15:44.654Z,12.10
2017-12-06T14:18:12.329Z,11.60
2017-12-06T14:20:40.053Z,11.47
2017-12-06T14:23:07.747Z,10.47
2017-12-06T14:25:35.411Z,10.83
2017-12-06T14:28:02.813Z,11.00
2017-12-06T14:30:30.495Z,10.37
2017-12-06T14:32:58.119Z,9.47
2017-12-06T14:35:25.588Z,10.17
2017-12-06T14:37:52.948Z,11.27
2017-12-06T14:40:20.271Z,10.50
2017-12-06T14:42:47.697Z,9.10
2017-12-06T14:45:15.335Z,9.20
2017-12-06T14:47:42.991Z,9.30
2017-12-06T14:50:10.283Z,11.23
2017-12-06T14:52:37.615Z,9.97
2017-12-06T14:55:05.449Z,11.30
2017-12-06T14:57:32.842Z,11.60
2017-12-06T15:00:00.463Z,11.20
2017-12-06T15:02:27.847Z,11.17
2017-12-06T15:04:55.157Z,9.77
2017-12-06T15:07:22.845Z,9.87
2017-12-06T15:09:50.497Z,10.73
2017-12-06T15:12:17.884Z,11.80
2017-12-06T15:14:45.564Z,11.10
2017-12-06T15:17:13.197Z,10.20
2017-12-06T15:19:40.854Z,10.87
2017-12-06T15:22:08.576Z,10.67
2017-12-06T15:24:36.094Z,11.00
2017-12-06T15:27:03.729Z,10.70
2017-12-06T15:29:31.052Z,11.67
2017-12-06T15:31:58.737Z,11.03
2017-12-06T15:34:26.719Z,10.67
2017-12-06T15:36:54.034Z,11.00
2017-12-06T15:39:21.357Z,8.90
2017-12-06T15:41:48.985Z,12.70
2017-12-06T15:44:16.327Z,12.07
2017-12-06T15:46:43.985Z,13.60
2017-12-06T15:49:11.734Z,12.53
2017-12-06T15:51:39.135Z,12.60
2017-12-06T15:54:06.667Z,11.87
2017-12-06T15:56:34.348Z,11.33
2017-12-06T15:59:02.049Z,11.03
2017-12-06T16:01:29.397Z,12.07
2017-12-06T16:03:57.006Z,12.40
2017-12-06T16:06:24.335Z,11.70
2017-12-06T16:08:52.297Z,11.37
2017-12-06T16:11:19.652Z,12.47
2017-12-06T16:13:47.356Z,12.13
2017-12-06T16:16:15.024Z,11.60
2017-12-06T16:18:43.513Z,11.00
2017-12-06T16:21:11.885Z,12.23
2017-12-06T16:23:39.189Z,11.07
2017-12-06T16:26:06.512Z,11.90
2017-12-06T16:28:34.237Z,11.00
2017-12-06T16:31:02.888Z,11.57
2017-12-06T16:33:30.222Z,10.00
2017-12-06T16:36:17.320Z,10.97
2017-12-06T16:38:44.760Z,11.07
2017-12-06T16:41:12.101Z,9.80
2017-12-06T16:43:39.770Z,10.40
2017-12-06T16:46:07.774Z,11.00
2017-12-06T16:48:35.421Z,9.30
2017-12-06T16:51:02.729Z,9.77
2017-12-06T16:53:30.063Z,9.80
2017-12-06T16:55:57.372Z,12.17
2017-12-06T16:58:24.701Z,9.13
2017-12-06T17:00:52.567Z,8.90
2017-12-06T17:03:20.369Z,9.37
2017-12-06T17:05:48.009Z,8.13
2017-12-06T17:08:15.698Z,8.60
2017-12-06T17:10:43.373Z,8.57
2017-12-06T17:13:11.062Z,8.27
2017-12-06T17:15:38.864Z,9.57
2017-12-06T17:18:06.183Z,8.10
2017-12-06T17:20:33.475Z,9.10
2017-12-06T17:23:00.802Z,8.67
2017-12-06T17:25:28.277Z,8.23
2017-12-06T17:27:56.037Z,9.37
2017-12-06T17:30:29.215Z,8.90
2017-12-06T17:32:56.750Z,8.80
2017-12-06T17:35:24.209Z,8.30
2017-12-06T17:37:51.534Z,8.87
2017-12-06T17:40:19.175Z,8.40
2017-12-06T17:42:46.477Z,8.30
2017-12-06T17:45:14.201Z,7.53
2017-12-06T17:47:41.865Z,6.07
2017-12-06T17:50:15.646Z,8.10
2017-12-06T17:52:43.172Z,7.67
2017-12-06T17:55:10.472Z,7.97
2017-12-06T17:57:37.791Z,8.23
2017-12-06T18:00:05.109Z,7.57
2017-12-06T18:02:32.717Z,8.10
2017-12-06T18:05:00.140Z,7.37
2017-12-06T18:07:27.457Z,8.20
2017-12-06T18:09:54.889Z,7.77
2017-12-06T18:12:22.560Z,7.97
2017-12-06T18:14:50.212Z,8.03
2017-12-06T18:17:17.887Z,7.90
2017-12-06T18:19:45.203Z,7.53
2017-12-06T18:22:12.916Z,8.23
2017-12-06T18:24:40.216Z,7.57
2017-12-06T18:27:07.562Z,8.10
2017-12-06T18:29:34.863Z,8.00
2017-12-06T18:32:02.184Z,7.70
2017-12-06T18:34:29.481Z,7.57
2017-12-06T18:36:56.811Z,8.60
2017-12-06T18:39:24.377Z,7.90
2017-12-06T18:41:51.775Z,8.17
2017-12-06T18:44:19.491Z,8.20
2017-12-06T18:46:46.968Z,8.60
2017-12-06T18:49:14.737Z,7.43
2017-12-06T18:51:42.484Z,6.90
2017-12-06T18:54:09.795Z,7.00
2017-12-06T18:56:37.107Z,6.73
2017-12-06T18:59:04.752Z,8.20
2017-12-06T19:01:32.048Z,8.00
2017-12-06T19:03:59.692Z,7.77
2017-12-06T19:06:27.307Z,7.40
2017-12-06T19:08:54.994Z,7.60
2017-12-06T19:11:22.283Z,8.03
2017-12-06T19:13:49.972Z,8.07
2017-12-06T19:16:17.661Z,7.70
2017-12-06T19:18:45.027Z,7.30
2017-12-06T19:21:12.319Z,7.77
2017-12-06T19:23:39.936Z,7.47
2017-12-06T19:26:07.238Z,6.93
2017-12-06T19:28:34.856Z,7.67
2017-12-06T19:31:02.155Z,7.33
2017-12-06T19:33:29.480Z,7.30
2017-12-06T19:35:56.788Z,7.43
2017-12-06T19:38:24.158Z,7.37
2017-12-06T19:40:51.590Z,6.60
2017-12-06T19:43:19.277Z,8.13
2017-12-06T19:45:46.956Z,6.33
2017-12-06T19:48:14.304Z,7.17
2017-12-06T19:50:41.626Z,7.90
2017-12-06T19:53:09.025Z,7.00
2017-12-06T19:55:36.332Z,7.23
2017-12-06T19:58:04.038Z,7.30
2017-12-06T20:00:31.348Z,7.07
2017-12-06T20:02:58.765Z,7.57
2017-12-06T20:05:26.507Z,7.73
2017-12-06T20:07:53.807Z,7.17
2017-12-06T20:10:21.129Z,6.90
2017-12-06T20:12:48.751Z,7.03
2017-12-06T20:15:16.075Z,7.60
2017-12-06T20:17:43.394Z,6.33
2017-12-06T20:20:11.083Z,7.50
2017-12-06T20:22:38.711Z,7.40
2017-12-06T20:25:06.013Z,7.63
2017-12-06T20:27:33.331Z,6.50
2017-12-06T20:30:00.956Z,8.23
2017-12-06T20:32:28.323Z,7.40
2017-12-06T20:34:55.999Z,7.23
2017-12-06T20:37:23.304Z,7.47
2017-12-06T20:39:50.615Z,7.27
2017-12-06T20:42:18.265Z,7.27
2017-12-06T20:44:45.615Z,7.70
2017-12-06T20:47:12.970Z,7.10
2017-12-06T20:49:40.266Z,7.73
2017-12-06T20:52:07.574Z,6.57
2017-12-06T20:54:34.885Z,8.40
2017-12-06T20:57:02.177Z,7.23
2017-12-06T20:59:29.562Z,7.67
2017-12-06T21:01:57.186Z,7.37
2017-12-06T21:04:24.560Z,7.33
2017-12-06T21:06:51.859Z,7.00
2017-12-06T21:09:19.253Z,7.73
2017-12-06T21:11:46.902Z,6.13
2017-12-06T21:14:14.618Z,7.10
2017-12-06T21:16:41.968Z,7.10
2017-12-06T21:19:09.583Z,7.50
2017-12-06T21:21:36.883Z,6.93
2017-12-06T21:24:04.526Z,7.40
2017-12-06T21:26:31.821Z,6.80
2017-12-06T21:28:59.137Z,6.40
2017-12-06T21:31:26.779Z,7.30
2017-12-06T21:33:54.101Z,7.37
2017-12-06T21:36:21.897Z,6.97
2017-12-06T21:38:49.240Z,7.40
2017-12-06T21:41:16.900Z,6.87
2017-12-06T21:43:44.564Z,6.60
2017-12-06T21:46:12.285Z,7.50
2017-12-06T21:48:39.588Z,7.43
2017-12-06T21:51:06.905Z,7.20
2017-12-06T21:53:34.207Z,6.93
2017-12-06T21:56:01.524Z,7.03
2017-12-06T21:58:28.914Z,6.77
2017-12-06T22:00:56.225Z,6.87
2017-12-06T22:03:24.112Z,6.90
2017-12-06T22:05:51.501Z,6.47
2017-12-06T22:08:19.165Z,6.63
2017-12-06T22:10:46.863Z,6.93
2017-12-06T22:13:14.151Z,6.47
2017-12-06T22:15:41.512Z,6.80
2017-12-06T22:18:08.818Z,6.17
2017-12-06T22:20:36.522Z,5.97
2017-12-06T22:23:03.826Z,6.87
2017-12-06T22:25:31.452Z,6.93
2017-12-06T22:27:58.753Z,6.70
2017-12-06T22:30:26.075Z,6.30
2017-12-06T22:32:53.708Z,6.97
2017-12-06T22:35:21.037Z,6.20
2017-12-06T22:37:48.369Z,6.50
2017-12-06T22:40:15.681Z,6.17
2017-12-06T22:42:43.013Z,6.80
2017-12-06T22:45:16.125Z,6.67
2017-12-06T22:47:43.456Z,6.70
2017-12-06T22:50:11.130Z,6.63
2017-12-06T22:52:38.829Z,6.73
2017-12-06T22:55:06.312Z,6.00
2017-12-06T22:57:33.625Z,6.00
2017-12-06T23:00:01.266Z,6.70
2017-12-06T23:02:28.625Z,6.50
2017-12-06T23:04:55.931Z,6.43
2017-12-06T23:07:23.286Z,5.77
2017-12-06T23:09:50.989Z,6.80
2017-12-06T23:12:18.646Z,6.53
2017-12-06T23:14:46.337Z,6.10
2017-12-06T23:17:13.620Z,5.90
2017-12-06T23:19:40.927Z,5.73
2017-12-06T23:22:08.234Z,6.60
2017-12-06T23:24:35.544Z,6.20
2017-12-06T23:27:02.840Z,6.60
2017-12-06T23:29:30.161Z,5.30
2017-12-06T23:31:57.476Z,6.33
2017-12-06T23:34:24.955Z,6.33
2017-12-06T23:36:52.262Z,5.97
2017-12-06T23:39:19.615Z,5.80
2017-12-06T23:41:46.913Z,6.50
2017-12-06T23:44:17.568Z,6.40
2017-12-06T23:46:45.298Z,5.43
2017-12-06T23:49:12.797Z,6.30
2017-12-06T23:51:40.533Z,5.50
2017-12-06T23:54:08.167Z,6.70
2017-12-06T23:56:35.497Z,6.27
2017-12-06T23:59:02.805Z,6.20
